Greenbush, MN

6:44 PM CDT on March 30, 2015 (GMT -0500)
RAWS | | Change Station
CLOSE
Current Station
Personal Weather Station
Location: Roseau, MN
Elevation: 1046 ft
Nearby Weather Stations

Elev 1046 ft 48.85 °N, 95.70 °W | Updated 36 minutes ago

Partly Cloudy
Partly Cloudy
49 °F
Feels Like 47 °F
N
5
Wind Variable Wind from SW
Gusts 11.0 mph

Today
High -- | Low -- °F
--% Chance of Precip.
Yesterday
High -- | Low -- °F
Precip. -- in
7:07 AM 7:52 PM
Waxing Gibbous, 83% visible
Pressure 29.82 in
Visibility 10.0 miles
Clouds Scattered Clouds 7500 ft
Windchill 47 °F
Dew Point 34 °F
Humidity 55%
Rainfall in
Snow Depth Not available.
UV 0 out of 12
Pollen 4.10 out of 12
Air Quality Not available.
Flu Activity Not available.
METAR KROX 302334Z AUTO 23005KT 10SM SCT075 09/02 A2982 RMK AO2

More Conditions Fewer Conditions

Pressure 29.82 in
Visibility 10.0 miles
Clouds Scattered Clouds 7500 ft
Windchill 47 °F
Dew Point 34 °F
Humidity 55%
Rainfall in
Snow Depth Not available.
UV 0 out of 12
Pollen 4.10 out of 12
Air Quality Not available.
Flu Activity Not available.
METAR KROX 302334Z AUTO 23005KT 10SM SCT075 09/02 A2982 RMK AO2

More Conditions Fewer Conditions

10-Day Weather Forecast

Almanac

Astronomy

Mar. 30, 2015 Rise Set
Actual Time
Civil Twilight
Nautical Twilight
Astronomical Twilight
Moon
Length of Visible Light
Length of Day
Tomorrow will be .
, % of the Moon is Illuminated

Today's Extremes

State Highs State Lows

Community

WunderPhotos

Upload Photos

1,809,618 photos uploaded!

WunderBlogs® & News

Nearby

Air Quality

  Air Quality AQ Index Pollutant
Not available.

Snow Depth

Station Depth Elevation

Earthquake Activity

City Distance Mag. Time & Date
Minimum magnitude displayed is 2.5.

Coastal Water Temperatures

Place Temperature

Stations

Nearby Weather Stations

Station Location Temp. Windchill Dew Point Humidity Wind Precip. Elev Updated Type